createdAt,value
2022-12-20T00:00:27.174Z,21.88
2022-12-20T00:02:56.960Z,24.80
2022-12-20T00:05:26.767Z,24.88
2022-12-20T00:07:59.086Z,25.00
2022-12-20T00:10:28.856Z,24.38
2022-12-20T00:12:58.706Z,23.52
2022-12-20T00:15:28.518Z,25.60
2022-12-20T00:17:58.467Z,24.88
2022-12-20T00:20:29.397Z,23.33
2022-12-20T00:23:01.819Z,23.90
2022-12-20T00:25:32.089Z,24.95
2022-12-20T00:28:03.214Z,21.75
2022-12-20T00:30:33.034Z,25.00
2022-12-20T00:33:02.871Z,20.10
2022-12-20T00:35:32.627Z,22.58
2022-12-20T00:38:04.982Z,23.58
2022-12-20T00:40:34.759Z,23.35
2022-12-20T00:43:04.570Z,23.77
2022-12-20T00:45:34.431Z,25.08
2022-12-20T00:48:04.435Z,26.85
2022-12-20T00:50:34.611Z,24.20
2022-12-20T00:53:09.948Z,24.20
2022-12-20T00:55:44.479Z,24.77
2022-12-20T01:00:46.826Z,22.05
2022-12-20T01:03:18.921Z,25.00
2022-12-20T01:05:53.872Z,25.23
2022-12-20T01:08:27.772Z,23.70
2022-12-20T01:11:04.584Z,25.65
2022-12-20T01:13:36.069Z,26.20
2022-12-20T01:16:07.988Z,23.83
2022-12-20T01:18:38.395Z,26.73
2022-12-20T01:21:09.831Z,25.23
2022-12-20T01:23:43.076Z,22.83
2022-12-20T01:26:15.714Z,23.40
2022-12-20T01:28:47.692Z,28.40
2022-12-20T01:31:19.825Z,25.27
2022-12-20T01:33:50.837Z,24.55
2022-12-20T01:36:22.806Z,23.92
2022-12-20T01:38:59.465Z,25.65
2022-12-20T01:41:30.813Z,22.33
2022-12-20T01:44:03.328Z,25.13
2022-12-20T01:46:35.131Z,25.23
2022-12-20T01:49:11.474Z,22.20
2022-12-20T01:51:46.001Z,27.38
2022-12-20T01:56:54.022Z,27.75
2022-12-20T01:59:23.950Z,21.08
2022-12-20T02:01:53.985Z,23.80
2022-12-20T02:04:23.873Z,27.92
2022-12-20T02:06:53.731Z,24.05
2022-12-20T02:09:26.487Z,28.00
2022-12-20T02:12:10.307Z,28.95
2022-12-20T02:14:52.305Z,25.52
2022-12-20T02:17:31.325Z,23.08
2022-12-20T02:20:35.860Z,21.52
2022-12-20T02:23:28.940Z,24.58
2022-12-20T02:26:18.402Z,25.83
2022-12-20T02:29:09.622Z,24.58
2022-12-20T02:31:46.637Z,25.75
2022-12-20T02:34:17.715Z,23.45
2022-12-20T02:36:47.601Z,24.95
2022-12-20T02:39:17.877Z,25.40
2022-12-20T02:41:52.971Z,24.90
2022-12-20T02:44:39.158Z,24.30
2022-12-20T02:47:15.606Z,24.63
2022-12-20T02:49:47.125Z,24.48
2022-12-20T02:52:17.949Z,22.17
2022-12-20T02:54:47.784Z,26.55
2022-12-20T02:57:22.600Z,25.33
2022-12-20T03:00:01.453Z,25.98
2022-12-20T03:02:55.653Z,28.65
2022-12-20T03:05:27.167Z,22.47
2022-12-20T03:07:58.379Z,24.42
2022-12-20T03:10:28.747Z,23.38
2022-12-20T03:12:58.562Z,25.40
2022-12-20T03:15:28.510Z,21.27
2022-12-20T03:18:00.934Z,26.15
2022-12-20T03:20:30.916Z,23.25
2022-12-20T03:23:00.698Z,22.83
2022-12-20T03:25:30.591Z,24.38
2022-12-20T03:28:00.490Z,22.33
2022-12-20T03:30:30.456Z,24.10
2022-12-20T03:33:02.796Z,21.80
2022-12-20T03:35:32.617Z,22.02
2022-12-20T03:38:02.403Z,22.17
2022-12-20T03:40:32.256Z,26.25
2022-12-20T03:43:02.058Z,22.73
2022-12-20T03:45:31.896Z,22.80
2022-12-20T03:48:04.389Z,22.35
2022-12-20T03:50:34.503Z,20.35
2022-12-20T03:53:04.320Z,23.38
2022-12-20T03:55:34.143Z,22.15
2022-12-20T03:58:04.002Z,22.80
2022-12-20T04:00:33.817Z,21.20
2022-12-20T04:03:06.282Z,22.55
2022-12-20T04:05:36.465Z,19.50
2022-12-20T04:08:06.661Z,22.00
2022-12-20T04:10:56.992Z,19.20
2022-12-20T04:13:26.804Z,19.23
2022-12-20T04:16:00.287Z,19.30
2022-12-20T04:18:33.447Z,20.88
2022-12-20T04:21:03.794Z,19.48
2022-12-20T04:23:33.873Z,19.38
2022-12-20T04:26:03.886Z,19.52
2022-12-20T04:28:34.044Z,17.67
2022-12-20T04:31:04.593Z,22.60
2022-12-20T04:33:37.031Z,18.65
2022-12-20T04:36:07.418Z,20.98
2022-12-20T04:38:37.379Z,19.90
2022-12-20T04:41:07.206Z,25.70
2022-12-20T04:43:37.008Z,18.23
2022-12-20T04:46:06.884Z,18.00
2022-12-20T04:48:58.533Z,15.68
2022-12-20T04:51:29.638Z,18.90
2022-12-20T04:53:57.188Z,18.75
2022-12-20T04:56:29.195Z,18.27
2022-12-20T04:59:02.636Z,17.38
2022-12-20T05:01:32.674Z,15.45
2022-12-20T05:04:05.202Z,19.08
2022-12-20T05:06:35.018Z,20.00
2022-12-20T05:09:04.970Z,16.20
2022-12-20T05:11:34.856Z,13.18
2022-12-20T05:14:04.678Z,18.50
2022-12-20T05:16:34.484Z,16.85
2022-12-20T05:19:07.380Z,16.90
2022-12-20T05:21:49.657Z,16.95
2022-12-20T05:24:32.055Z,19.45
2022-12-20T05:27:01.903Z,16.98
2022-12-20T05:29:31.665Z,17.25
2022-12-20T05:32:01.569Z,18.30
2022-12-20T05:34:33.898Z,19.02
2022-12-20T05:37:03.689Z,18.08
2022-12-20T05:39:33.902Z,16.88
2022-12-20T05:42:04.333Z,15.48
2022-12-20T05:44:34.122Z,14.05
2022-12-20T05:47:03.924Z,14.25
2022-12-20T05:49:36.474Z,15.13
2022-12-20T05:52:06.402Z,15.05
2022-12-20T05:54:36.237Z,14.90
2022-12-20T05:57:06.124Z,17.20
2022-12-20T05:59:36.053Z,14.70
2022-12-20T06:02:06.255Z,14.55
2022-12-20T06:04:39.154Z,18.55
2022-12-20T06:07:09.475Z,16.63
2022-12-20T06:09:43.255Z,14.05
2022-12-20T06:12:14.018Z,16.45
2022-12-20T06:14:43.907Z,16.77
2022-12-20T06:17:14.621Z,15.63
2022-12-20T06:19:47.041Z,13.45
2022-12-20T06:22:16.921Z,15.63
2022-12-20T06:24:48.829Z,14.55
2022-12-20T06:27:18.987Z,15.05
2022-12-20T06:29:52.027Z,12.57
2022-12-20T06:32:22.095Z,15.35
2022-12-20T06:34:54.690Z,14.63
2022-12-20T06:37:24.705Z,15.25
2022-12-20T06:39:54.512Z,15.10
2022-12-20T06:42:24.325Z,12.82
2022-12-20T06:44:54.114Z,14.88
2022-12-20T06:47:23.985Z,20.35
2022-12-20T06:49:56.372Z,15.95
2022-12-20T06:52:26.200Z,15.35
2022-12-20T06:54:55.999Z,15.15
2022-12-20T06:57:26.034Z,14.80
2022-12-20T06:59:56.549Z,15.52
2022-12-20T07:02:27.945Z,14.82
2022-12-20T07:05:00.557Z,17.80
2022-12-20T07:07:30.388Z,19.88
2022-12-20T07:10:00.213Z,21.15
2022-12-20T07:12:29.959Z,17.95
2022-12-20T07:14:59.732Z,15.57
2022-12-20T07:17:29.542Z,18.75
2022-12-20T07:20:05.096Z,15.63
2022-12-20T07:22:37.450Z,16.00
2022-12-20T07:25:07.882Z,19.88
2022-12-20T07:27:37.722Z,15.27
2022-12-20T07:30:08.801Z,13.38
2022-12-20T07:32:38.695Z,16.75
2022-12-20T07:35:13.288Z,17.33
2022-12-20T07:37:43.494Z,16.33
2022-12-20T07:40:16.432Z,16.02
2022-12-20T07:42:48.836Z,17.20
2022-12-20T07:45:19.221Z,16.13
2022-12-20T07:47:49.051Z,17.90
2022-12-20T07:50:21.518Z,15.82
2022-12-20T07:52:53.343Z,16.83
2022-12-20T07:55:24.218Z,17.25
2022-12-20T07:57:59.091Z,14.90
2022-12-20T08:00:28.974Z,16.50
2022-12-20T08:03:03.721Z,15.85
2022-12-20T08:05:37.612Z,12.57
2022-12-20T08:08:08.756Z,14.65
2022-12-20T08:10:40.051Z,16.95
2022-12-20T08:13:11.061Z,17.75
2022-12-20T08:15:41.235Z,15.90
2022-12-20T08:18:11.283Z,16.58
2022-12-20T08:20:43.626Z,18.08
2022-12-20T08:23:13.810Z,14.73
2022-12-20T08:25:43.657Z,12.38
2022-12-20T08:28:13.647Z,15.18
2022-12-20T08:30:43.609Z,17.45
2022-12-20T08:33:14.024Z,14.55
2022-12-20T08:35:46.423Z,16.60
2022-12-20T08:38:16.283Z,14.35
2022-12-20T08:40:46.382Z,14.32
2022-12-20T08:43:16.109Z,13.38
2022-12-20T08:45:45.905Z,14.70
2022-12-20T08:48:15.674Z,15.93
2022-12-20T08:50:48.319Z,14.13
2022-12-20T08:53:18.244Z,13.88
2022-12-20T08:55:48.054Z,15.00
2022-12-20T08:58:18.377Z,12.23
2022-12-20T09:00:48.711Z,13.45
2022-12-20T09:03:18.608Z,12.50
2022-12-20T09:05:51.788Z,13.23
2022-12-20T09:08:21.669Z,12.80
2022-12-20T09:10:51.808Z,13.07
2022-12-20T09:13:22.556Z,12.68
2022-12-20T09:15:52.326Z,13.98
2022-12-20T09:18:22.150Z,13.88
2022-12-20T09:20:54.628Z,11.95
2022-12-20T09:23:24.397Z,11.35
2022-12-20T09:25:54.271Z,12.88
2022-12-20T09:28:24.294Z,11.70
2022-12-20T09:30:54.197Z,13.18
2022-12-20T09:33:24.441Z,11.45
2022-12-20T09:35:57.238Z,11.38
2022-12-20T09:38:27.154Z,10.90
2022-12-20T09:40:59.701Z,12.20
2022-12-20T09:43:30.478Z,10.85
2022-12-20T09:46:04.216Z,10.90
2022-12-20T09:48:38.051Z,11.13
2022-12-20T09:51:22.888Z,13.18
2022-12-20T09:56:32.941Z,11.80
2022-12-20T09:59:06.088Z,10.75
2022-12-20T10:01:40.061Z,13.73
2022-12-20T10:04:21.584Z,11.43
2022-12-20T10:07:02.139Z,13.13
2022-12-20T10:09:54.753Z,12.38
2022-12-20T10:12:35.755Z,11.23
2022-12-20T10:15:20.776Z,11.38
2022-12-20T10:18:06.350Z,9.38
2022-12-20T10:20:44.754Z,9.23
2022-12-20T10:23:33.087Z,37.03
2022-12-20T10:26:03.734Z,11.55
2022-12-20T10:28:37.421Z,8.85
2022-12-20T10:31:16.364Z,10.98
2022-12-20T10:33:47.428Z,10.13
2022-12-20T10:36:22.314Z,10.40
2022-12-20T10:38:56.953Z,10.38
2022-12-20T10:41:28.638Z,8.98
2022-12-20T10:44:03.452Z,12.23
2022-12-20T10:46:41.593Z,10.52
2022-12-20T10:49:31.119Z,11.30
2022-12-20T10:52:04.031Z,9.32
2022-12-20T10:54:41.347Z,11.85
2022-12-20T10:57:21.625Z,9.80
2022-12-20T10:59:55.438Z,11.75
2022-12-20T11:02:38.885Z,11.07
2022-12-20T11:05:25.967Z,12.80
2022-12-20T11:10:51.158Z,12.23
2022-12-20T11:13:27.052Z,31.80
2022-12-20T11:16:01.810Z,12.07
2022-12-20T11:18:46.367Z,12.88
2022-12-20T11:21:28.541Z,11.63
2022-12-20T11:24:09.103Z,10.98
2022-12-20T11:26:53.583Z,10.15
2022-12-20T11:29:49.827Z,10.68
2022-12-20T11:32:31.656Z,13.55
2022-12-20T11:35:12.280Z,12.60
2022-12-20T11:37:52.416Z,15.90
2022-12-20T11:40:32.106Z,13.98
2022-12-20T11:43:39.077Z,11.52
2022-12-20T11:46:34.517Z,16.48
2022-12-20T11:49:35.837Z,17.15
2022-12-20T11:52:12.593Z,15.85
2022-12-20T11:54:46.505Z,14.20
2022-12-20T11:57:22.534Z,12.85
2022-12-20T11:59:58.939Z,13.35
2022-12-20T12:02:35.747Z,13.75
2022-12-20T12:05:09.146Z,15.82
2022-12-20T12:07:42.193Z,13.43
2022-12-20T12:10:18.933Z,12.73
2022-12-20T12:12:50.832Z,11.93
2022-12-20T12:15:33.524Z,13.75
2022-12-20T12:18:07.933Z,10.38
2022-12-20T12:20:48.106Z,17.33
2022-12-20T12:23:24.498Z,11.38
2022-12-20T12:25:54.997Z,13.93
2022-12-20T12:28:26.313Z,13.32
2022-12-20T12:31:04.063Z,12.50
2022-12-20T12:33:39.261Z,13.55
2022-12-20T12:36:29.405Z,11.73
2022-12-20T12:39:25.008Z,13.80
2022-12-20T12:42:20.671Z,11.85
2022-12-20T12:44:55.118Z,13.75
2022-12-20T12:47:37.836Z,11.00
2022-12-20T12:50:11.638Z,11.45
2022-12-20T12:52:49.549Z,11.40
2022-12-20T12:55:39.230Z,13.60
2022-12-20T12:58:46.441Z,14.73
2022-12-20T13:01:53.110Z,13.52
2022-12-20T13:04:31.688Z,13.52
2022-12-20T13:07:05.127Z,14.23
2022-12-20T13:09:45.499Z,13.00
2022-12-20T13:12:53.894Z,13.75
2022-12-20T13:15:53.917Z,9.10
2022-12-20T13:18:29.323Z,10.80
2022-12-20T13:21:31.932Z,8.45
2022-12-20T13:24:42.492Z,10.95
2022-12-20T13:27:29.322Z,8.73
2022-12-20T13:30:25.459Z,12.60
2022-12-20T13:33:24.549Z,14.15
2022-12-20T13:36:38.067Z,9.43
2022-12-20T13:39:34.341Z,9.75
2022-12-20T13:42:26.637Z,11.95
2022-12-20T13:44:58.090Z,12.60
2022-12-20T13:47:44.841Z,13.63
2022-12-20T13:50:29.256Z,12.90
2022-12-20T13:53:02.122Z,10.82
2022-12-20T13:55:42.686Z,9.55
2022-12-20T13:58:20.040Z,9.52
2022-12-20T14:00:51.083Z,9.10
2022-12-20T14:03:26.929Z,9.52
2022-12-20T14:06:01.384Z,10.13
2022-12-20T14:08:36.616Z,10.20
2022-12-20T14:11:13.578Z,8.85
2022-12-20T14:13:44.400Z,13.52
2022-12-20T14:16:18.611Z,9.05
2022-12-20T14:18:51.648Z,7.43
2022-12-20T14:21:22.262Z,10.90
2022-12-20T14:23:57.129Z,8.90
2022-12-20T14:26:29.904Z,10.07
2022-12-20T14:29:01.750Z,8.95
2022-12-20T14:31:36.476Z,7.75
2022-12-20T14:34:07.980Z,8.18
2022-12-20T14:36:37.844Z,7.25
2022-12-20T14:39:29.654Z,7.63
2022-12-20T14:42:00.771Z,17.08
2022-12-20T14:44:32.121Z,8.93
2022-12-20T14:47:03.555Z,12.25
2022-12-20T14:49:36.043Z,8.45
2022-12-20T14:52:17.999Z,9.77
2022-12-20T14:55:08.929Z,8.10
2022-12-20T14:57:47.177Z,10.63
2022-12-20T15:00:27.675Z,9.75
2022-12-20T15:03:03.883Z,10.65
2022-12-20T15:05:49.151Z,8.90
2022-12-20T15:08:22.085Z,9.68
2022-12-20T15:10:57.830Z,12.43
2022-12-20T15:13:32.423Z,11.27
2022-12-20T15:18:35.515Z,10.73
2022-12-20T15:21:09.033Z,12.70
2022-12-20T15:23:39.144Z,10.10
2022-12-20T15:26:15.087Z,10.48
2022-12-20T15:28:45.170Z,9.13
2022-12-20T15:31:16.826Z,10.60
2022-12-20T15:33:47.496Z,13.20
2022-12-20T15:36:20.421Z,14.07
2022-12-20T15:41:46.364Z,8.88
2022-12-20T15:44:18.706Z,10.77
2022-12-20T15:46:48.657Z,9.95
2022-12-20T15:49:21.270Z,11.00
2022-12-20T15:51:52.820Z,12.43
2022-12-20T15:54:27.686Z,13.07
2022-12-20T15:57:02.961Z,11.52
2022-12-20T15:59:59.795Z,11.10
2022-12-20T16:02:25.706Z,12.05
2022-12-20T16:04:56.949Z,10.57
2022-12-20T16:07:26.830Z,10.48
2022-12-20T16:09:57.150Z,12.18
2022-12-20T16:12:32.597Z,10.20
2022-12-20T16:15:02.524Z,11.38
2022-12-20T16:17:32.359Z,12.25
2022-12-20T16:20:02.168Z,11.10
2022-12-20T16:22:32.003Z,11.10
2022-12-20T16:25:01.943Z,13.15
2022-12-20T16:27:34.261Z,10.23
2022-12-20T16:30:04.080Z,11.02
2022-12-20T16:32:33.960Z,14.00
2022-12-20T16:35:03.787Z,10.75
2022-12-20T16:37:38.767Z,11.85
2022-12-20T16:40:10.467Z,11.40
2022-12-20T16:42:43.036Z,11.90
2022-12-20T16:45:19.108Z,15.32
2022-12-20T16:47:49.661Z,12.35
2022-12-20T16:50:21.953Z,13.32
2022-12-20T16:52:52.376Z,12.07
2022-12-20T16:55:24.323Z,14.50
2022-12-20T16:57:57.266Z,12.18
2022-12-20T17:00:28.700Z,12.57
2022-12-20T17:02:59.353Z,16.23
2022-12-20T17:05:34.080Z,9.80
2022-12-20T17:10:51.801Z,12.77
2022-12-20T17:13:24.275Z,11.18
2022-12-20T17:15:54.331Z,11.15
2022-12-20T17:18:24.271Z,11.43
2022-12-20T17:20:54.989Z,14.18
2022-12-20T17:26:08.789Z,14.60
2022-12-20T17:28:41.400Z,12.27
2022-12-20T17:31:22.668Z,8.57
2022-12-20T17:33:52.654Z,13.93
2022-12-20T17:36:22.672Z,11.60
2022-12-20T17:38:53.701Z,14.80
2022-12-20T17:41:26.251Z,11.27
2022-12-20T17:43:59.729Z,14.85
2022-12-20T17:46:29.870Z,12.50
2022-12-20T17:49:00.117Z,20.55
2022-12-20T17:51:31.878Z,12.20
2022-12-20T17:54:03.557Z,11.63
2022-12-20T17:56:35.010Z,9.60
2022-12-20T17:59:07.470Z,14.13
2022-12-20T18:01:39.008Z,13.13
2022-12-20T18:04:11.779Z,10.90
2022-12-20T18:06:42.904Z,10.95
2022-12-20T18:09:16.654Z,14.38
2022-12-20T18:11:48.860Z,13.68
2022-12-20T18:14:21.310Z,10.75
2022-12-20T18:16:51.130Z,10.75
2022-12-20T18:19:22.374Z,10.07
2022-12-20T18:21:52.321Z,11.93
2022-12-20T18:24:22.156Z,11.70
2022-12-20T18:26:51.956Z,14.32
2022-12-20T18:29:24.372Z,13.82
2022-12-20T18:31:54.277Z,10.98
2022-12-20T18:34:24.119Z,11.23
2022-12-20T18:36:53.884Z,10.80
2022-12-20T18:39:23.696Z,9.80
2022-12-20T18:41:53.458Z,11.30
2022-12-20T18:44:26.218Z,13.07
2022-12-20T18:46:56.399Z,11.55
2022-12-20T18:49:26.207Z,11.68
2022-12-20T18:51:55.977Z,13.77
2022-12-20T18:54:25.785Z,12.35
2022-12-20T18:56:55.727Z,11.13
2022-12-20T18:59:28.228Z,12.93
2022-12-20T19:01:58.274Z,12.27
2022-12-20T19:04:28.288Z,11.02
2022-12-20T19:06:58.139Z,15.88
2022-12-20T19:09:27.990Z,12.63
2022-12-20T19:11:58.142Z,14.25
2022-12-20T19:14:30.773Z,11.95
2022-12-20T19:17:00.678Z,14.40
2022-12-20T19:19:30.654Z,12.20
2022-12-20T19:22:00.608Z,11.63
2022-12-20T19:24:30.414Z,11.60
2022-12-20T19:27:00.348Z,10.80
2022-12-20T19:29:32.723Z,12.48
2022-12-20T19:32:02.675Z,14.77
2022-12-20T19:34:32.486Z,11.63
2022-12-20T19:37:02.232Z,12.07
2022-12-20T19:39:31.966Z,11.90
2022-12-20T19:44:54.931Z,12.18
2022-12-20T19:49:57.275Z,12.10
2022-12-20T19:52:29.008Z,10.35
2022-12-20T19:54:59.008Z,11.30
2022-12-20T19:57:28.799Z,13.43
2022-12-20T20:00:01.139Z,13.98
2022-12-20T20:02:31.295Z,13.85
2022-12-20T20:05:03.551Z,12.27
2022-12-20T20:07:34.151Z,14.73
2022-12-20T20:10:03.929Z,14.82
2022-12-20T20:12:34.177Z,12.98
2022-12-20T20:15:07.304Z,11.95
2022-12-20T20:17:37.650Z,14.60
2022-12-20T20:20:08.733Z,14.68
2022-12-20T20:22:38.686Z,15.85
2022-12-20T20:25:09.717Z,15.13
2022-12-20T20:27:39.711Z,14.40
2022-12-20T20:30:14.429Z,15.13
2022-12-20T20:32:44.511Z,13.63
2022-12-20T20:35:14.356Z,14.15
2022-12-20T20:37:44.156Z,11.68
2022-12-20T20:40:15.854Z,10.93
2022-12-20T20:42:45.631Z,14.60
2022-12-20T20:45:18.272Z,13.95
2022-12-20T20:47:48.042Z,10.90
2022-12-20T20:50:18.148Z,12.60
2022-12-20T20:52:47.903Z,11.05
2022-12-20T20:55:18.083Z,10.57
2022-12-20T20:57:47.934Z,18.25
2022-12-20T21:00:21.113Z,13.88
2022-12-20T21:02:51.089Z,16.83
2022-12-20T21:08:10.912Z,15.90
2022-12-20T21:10:40.778Z,16.75
2022-12-20T21:13:12.026Z,14.82
2022-12-20T21:15:46.542Z,21.85
2022-12-20T21:20:46.200Z,12.18
2022-12-20T21:23:15.973Z,20.95
2022-12-20T21:25:45.736Z,16.00
2022-12-20T21:28:21.075Z,15.07
2022-12-20T21:31:01.239Z,15.85
2022-12-20T21:33:31.446Z,17.25
2022-12-20T21:36:02.872Z,15.23
2022-12-20T21:38:32.705Z,16.40
2022-12-20T21:41:03.552Z,16.90
2022-12-20T21:43:33.626Z,15.10
2022-12-20T21:46:11.171Z,16.02
2022-12-20T21:48:41.549Z,15.90
2022-12-20T21:51:13.477Z,13.02
2022-12-20T21:53:45.197Z,13.75
2022-12-20T21:56:16.035Z,13.63
2022-12-20T21:58:46.360Z,12.25
2022-12-20T22:01:21.521Z,12.98
2022-12-20T22:03:53.760Z,15.15
2022-12-20T22:06:24.183Z,14.63
2022-12-20T22:08:54.745Z,19.23
2022-12-20T22:11:24.541Z,16.95
2022-12-20T22:13:57.271Z,15.07
2022-12-20T22:16:34.880Z,15.70
2022-12-20T22:19:05.340Z,14.73
2022-12-20T22:21:36.845Z,18.90
2022-12-20T22:24:07.437Z,16.13
2022-12-20T22:26:40.826Z,13.48
2022-12-20T22:29:11.497Z,13.90
2022-12-20T22:31:43.905Z,12.93
2022-12-20T22:34:13.818Z,12.35
2022-12-20T22:36:43.699Z,13.45
2022-12-20T22:39:14.365Z,12.95
2022-12-20T22:41:44.740Z,11.15
2022-12-20T22:44:14.568Z,13.65
2022-12-20T22:46:47.049Z,11.18
2022-12-20T22:49:19.748Z,13.10
2022-12-20T22:52:04.347Z,16.58
2022-12-20T22:54:36.521Z,14.23
2022-12-20T22:57:06.414Z,11.63
2022-12-20T22:59:36.627Z,13.00
2022-12-20T23:02:09.277Z,10.98
2022-12-20T23:04:39.436Z,11.55
2022-12-20T23:07:09.746Z,12.73
2022-12-20T23:09:39.528Z,11.43
2022-12-20T23:12:22.968Z,9.55
2022-12-20T23:15:05.300Z,11.55
2022-12-20T23:17:37.960Z,10.93
2022-12-20T23:20:21.796Z,7.55
2022-12-20T23:22:51.613Z,9.90
2022-12-20T23:25:23.196Z,12.25
2022-12-20T23:27:53.175Z,9.50
2022-12-20T23:30:25.795Z,9.68
2022-12-20T23:32:58.713Z,10.50
2022-12-20T23:35:28.650Z,8.30
2022-12-20T23:37:59.100Z,8.00
2022-12-20T23:40:29.022Z,10.25
2022-12-20T23:42:58.800Z,8.93
2022-12-20T23:45:28.627Z,9.75
2022-12-20T23:48:01.257Z,9.93
2022-12-20T23:50:31.075Z,10.10
2022-12-20T23:53:00.846Z,10.13
2022-12-20T23:55:30.623Z,6.75
2022-12-20T23:58:00.360Z,7.15
